Danbury, Texas
Current Conditions -  °F | °C
As of 12:53 PM on Tuesday 27 Jan 2015 (Local Time) from KLBX Reporting Station
Clear Clear  
Wind Chill: 23°   Ceiling: Unl
Heat Index: 23°   Visibility: 10mi
Dew Point:   Wind: 6mph
Humidity: 34%   Direction: NA
Pressure: 30.13"   Gusts: NA
Location:  29.23°N, 95.34°W
Report Text: KLBX 271853Z AUTO VRB05KT 10SM CLR 23/07 A3013 RMK AO2 SLP201 T02330067
Loading
Personal Weather Stations






























Interactive Weather Map New forecast layout! Learn more

10-Day Weather Forecast

Advertisements
Track Severe Weather on mobile